Hhl Rio De Janeiro — D5AU2 — position and weather

sailwx.info

Track history (hours):
 
Tides and Currents Weather Stations Pressure Air Temp Water Temp Dewpoint Dewpoint Depression Visibility Wind Speed Wind Dir Waves Ship Positions

Hhl Rio De Janeiro

Last reported at 2015-Apr-26 10:10 UTC. Time now 2015-Apr-28 11:53 UTC.
Position N 50°00' W 003°38'.

Length 168 m; draft 6.3 m.

Type: Cargo ship. MMSI: 636092346.

Date/timePositionNaut miles runAvg speedWind from/ knotsBaromVisibWave heightAir tempDewpointWater temp
2015-Apr-26 10:10N 50°00' W 003°38'915.0
2015-Apr-26 09:33N 49°60' W 003°24'1915.5
2015-Apr-26 08:17N 50°01' W 002°54'6116.4
2015-Apr-26 04:33N 50°17' W 001°22'1514.6
2015-Apr-26 03:33N 50°21' W 000°60'1413.3
2015-Apr-26 02:29N 50°25' W 000°38'1212.9
2015-Apr-26 01:32N 50°29' W 000°20'1413.3
2015-Apr-26 00:30N 50°32' E 000°01'1313.8
2015-Apr-25 23:34N 50°36' E 000°21'1514.5
2015-Apr-25 22:34N 50°41' E 000°42'1515.4
2015-Apr-25 21:34N 50°51' E 001°01'1515.1
2015-Apr-25 20:34N 51°00' E 001°20'1413.9
2015-Apr-25 19:33N 51°09' E 001°37'1312.7
2015-Apr-25 18:33N 51°19' E 001°49'1312.5
2015-Apr-25 17:33N 51°30' E 001°59'1313.3
2015-Apr-25 16:33N 51°40' E 002°14'1414.0
2015-Apr-25 15:33N 51°51' E 002°28'16112.2
2015-Apr-25 02:23N 54°22' E 000°55'1113.7
2015-Apr-25 01:33N 54°27' E 000°38'1413.8
2015-Apr-25 00:33N 54°33' E 000°17'1414.1
2015-Apr-24 23:33N 54°40' W 000°05'1414.3
2015-Apr-24 22:33N 54°46' W 000°27'1514.8
2015-Apr-24 21:33N 54°53' W 000°50'1514.9
2015-Apr-24 20:31N 54°59' W 001°15'8 0.2
2015-Apr-23 05:33N 54°59' W 001°28'2 1.1
2015-Apr-23 03:21N 54°59' W 001°32'0 0.0
2015-Apr-22 22:33N 54°59' W 001°32'0 0.0
2015-Apr-22 21:27N 54°59' W 001°32'0 0.0
2015-Apr-22 17:18N 54°59' W 001°32'0 0.0
2015-Apr-22 16:15N 54°59' W 001°32'  
Track history (hours):
 
Tides and Currents Weather Stations Pressure Air Temp Water Temp Dewpoint Dewpoint Depression Visibility Wind Speed Wind Dir Waves Ship Positions

Hhl Rio De Janeiro

Last reported at 2015-Apr-26 10:10 UTC. Time now 2015-Apr-28 11:53 UTC.
Position N 50°00' W 003°38'.

Length 168 m; draft 6.3 m.

Type: Cargo ship. MMSI: 636092346.

Date/timePositionNaut miles runAvg speedWind from/ knotsBaromVisibWave heightAir tempDewpointWater temp
2015-Apr-26 10:10N 50°00' W 003°38'915.0
2015-Apr-26 09:33N 49°60' W 003°24'1915.5
2015-Apr-26 08:17N 50°01' W 002°54'6116.4
2015-Apr-26 04:33N 50°17' W 001°22'1514.6
2015-Apr-26 03:33N 50°21' W 000°60'1413.3
2015-Apr-26 02:29N 50°25' W 000°38'1212.9
2015-Apr-26 01:32N 50°29' W 000°20'1413.3
2015-Apr-26 00:30N 50°32' E 000°01'1313.8
2015-Apr-25 23:34N 50°36' E 000°21'1514.5
2015-Apr-25 22:34N 50°41' E 000°42'1515.4
2015-Apr-25 21:34N 50°51' E 001°01'1515.1
2015-Apr-25 20:34N 51°00' E 001°20'1413.9
2015-Apr-25 19:33N 51°09' E 001°37'1312.7
2015-Apr-25 18:33N 51°19' E 001°49'1312.5
2015-Apr-25 17:33N 51°30' E 001°59'1313.3
2015-Apr-25 16:33N 51°40' E 002°14'1414.0
2015-Apr-25 15:33N 51°51' E 002°28'16112.2
2015-Apr-25 02:23N 54°22' E 000°55'1113.7
2015-Apr-25 01:33N 54°27' E 000°38'1413.8
2015-Apr-25 00:33N 54°33' E 000°17'1414.1
2015-Apr-24 23:33N 54°40' W 000°05'1414.3
2015-Apr-24 22:33N 54°46' W 000°27'1514.8
2015-Apr-24 21:33N 54°53' W 000°50'1514.9
2015-Apr-24 20:31N 54°59' W 001°15'8 0.2
2015-Apr-23 05:33N 54°59' W 001°28'2 1.1
2015-Apr-23 03:21N 54°59' W 001°32'0 0.0
2015-Apr-22 22:33N 54°59' W 001°32'0 0.0
2015-Apr-22 21:27N 54°59' W 001°32'0 0.0
2015-Apr-22 17:18N 54°59' W 001°32'0 0.0
2015-Apr-22 16:15N 54°59' W 001°32'  

Dump ship's entire track history